Time;durP1;ratioP1;P1;durP2;ratioP2;P2;SDS_P1;SDS_P2;PMS_P1;PMS_P2;Temp;Humidity;BMP_temperature;BMP_pressure;BME280_temperature;BME280_humidity;BME280_pressure;Samples;Min_cycle;Max_cycle;Signal;HPM_P1;HPM_P2
2021/05/01 00:00:14;;;;;;;;;28.50;26.00;;;;;17.64;37.76;98354.47;6260761;27;96417;-68
2021/05/01 00:03:18;;;;;;;;;27.00;25.40;;;;;17.58;38.01;98347.41;6275506;27;124753;-67
2021/05/01 00:06:20;;;;;;;;;29.00;25.25;;;;;17.60;37.99;98342.50;6261216;27;126552;-66
2021/05/01 00:09:23;;;;;;;;;24.50;24.00;;;;;17.57;38.08;98343.06;6264754;27;127084;-67
2021/05/01 00:12:25;;;;;;;;;27.00;25.00;;;;;17.56;38.15;98335.16;6264496;27;125965;-67
2021/05/01 00:15:28;;;;;;;;;27.20;25.00;;;;;17.54;38.27;98343.63;6288163;27;126295;-67
2021/05/01 00:18:30;;;;;;;;;26.40;24.00;;;;;17.55;38.19;98342.50;6289478;27;125282;-67
2021/05/01 00:21:32;;;;;;;;;25.40;24.00;;;;;17.47;38.29;98339.56;6288188;27;123309;-68
2021/05/01 00:24:36;;;;;;;;;27.00;25.00;;;;;17.47;38.41;98339.56;6289512;27;125268;-67
2021/05/01 00:27:38;;;;;;;;;28.00;25.40;;;;;17.45;38.55;98342.56;6289604;27;125952;-67
2021/05/01 00:30:41;;;;;;;;;26.00;24.80;;;;;17.44;38.51;98349.13;6276448;27;126864;-67
2021/05/01 00:33:43;;;;;;;;;26.40;25.40;;;;;17.41;38.70;98354.28;6273684;27;125262;-67
2021/05/01 00:36:46;;;;;;;;;26.60;24.60;;;;;17.27;38.98;98356.81;6289254;27;125816;-67
2021/05/01 00:39:49;;;;;;;;;26.00;26.00;;;;;17.23;38.89;98375.63;6288320;27;126247;-67
2021/05/01 00:42:52;;;;;;;;;29.50;27.50;;;;;17.10;39.21;98387.09;6273464;27;126024;-67
2021/05/01 00:45:54;;;;;;;;;31.00;27.00;;;;;16.91;39.49;98391.47;6263033;27;125256;-67
2021/05/01 00:48:56;;;;;;;;;29.20;27.20;;;;;16.91;39.74;98387.94;6263178;27;126312;-67
2021/05/01 00:51:59;;;;;;;;;31.20;28.60;;;;;16.89;39.78;98386.31;6263253;27;127160;-67
2021/05/01 00:55:03;;;;;;;;;33.00;29.00;;;;;16.84;39.89;98382.78;6264262;27;126427;-67
2021/05/01 00:58:05;;;;;;;;;36.00;31.00;;;;;16.86;39.98;98388.75;6267898;27;126516;-67
2021/05/01 01:04:24;;;;;;;;;38.40;33.00;;;;;16.76;40.06;98383.34;6287042;27;124538;-67
2021/05/01 01:07:27;;;;;;;;;34.50;30.00;;;;;16.66;40.29;98386.88;6282817;27;126766;-66
2021/05/01 01:10:30;;;;;;;;;37.80;33.00;;;;;16.66;40.16;98378.72;6264924;27;125360;-66
2021/05/01 01:13:33;;;;;;;;;35.60;30.60;;;;;16.47;40.50;98361.25;6262043;27;124382;-66
2021/05/01 01:16:35;;;;;;;;;32.60;30.00;;;;;16.42;40.63;98378.41;6279085;27;125980;-67
2021/05/01 01:19:39;;;;;;;;;29.00;27.40;;;;;16.32;40.86;98378.38;6264860;27;125677;-66
2021/05/01 01:22:42;;;;;;;;;28.60;25.80;;;;;16.28;40.80;98371.88;6269796;27;125798;-66
2021/05/01 01:25:44;;;;;;;;;33.00;29.20;;;;;16.19;40.99;98365.34;6288504;27;126452;-66
2021/05/01 01:28:48;;;;;;;;;29.40;27.60;;;;;16.19;41.11;98389.00;6287098;27;125352;-66
2021/05/01 01:31:50;;;;;;;;;28.75;25.75;;;;;15.95;41.65;98361.50;6270298;27;123149;-67
2021/05/01 01:34:53;;;;;;;;;27.80;26.00;;;;;15.92;41.55;98353.88;6276092;27;126104;-68
2021/05/01 01:37:56;;;;;;;;;30.60;27.60;;;;;15.78;41.92;98334.56;6264629;27;125189;-67
2021/05/01 01:40:59;;;;;;;;;26.25;25.00;;;;;15.87;41.75;98343.81;6285871;27;124044;-67
2021/05/01 01:44:01;;;;;;;;;30.80;29.40;;;;;15.80;42.14;98343.25;6261700;27;125212;-67
2021/05/01 01:47:04;;;;;;;;;34.25;30.00;;;;;15.69;42.22;98338.03;6263250;27;125222;-67
2021/05/01 01:50:10;;;;;;;;;34.80;31.00;;;;;15.69;42.42;98340.75;6276466;27;125804;-67
2021/05/01 01:53:14;;;;;;;;;33.20;30.00;;;;;15.66;42.66;98352.19;6284145;27;126792;-68
2021/05/01 01:56:16;;;;;;;;;35.00;32.00;;;;;15.70;42.42;98351.38;6268684;27;123173;-68
2021/05/01 01:59:18;;;;;;;;;32.00;30.00;;;;;15.66;42.61;98360.31;6262060;27;125330;-67
2021/05/01 02:02:32;;;;;;;;;33.40;28.60;;;;;15.56;42.58;98344.81;6262124;27;126702;-67
2021/05/01 02:05:34;;;;;;;;;32.40;30.00;;;;;15.75;42.65;98353.28;6278197;27;125231;-67
2021/05/01 02:08:38;;;;;;;;;30.40;28.00;;;;;15.82;42.44;98356.56;6262566;27;124623;-67
2021/05/01 02:11:45;;;;;;;;;29.00;27.60;;;;;15.91;42.26;98354.97;6262756;27;125078;-67
2021/05/01 02:14:47;;;;;;;;;26.00;25.00;;;;;15.96;42.20;98355.78;6286510;27;125329;-67
2021/05/01 02:17:51;;;;;;;;;27.00;25.00;;;;;15.88;42.19;98345.44;6287518;27;125178;-67
2021/05/01 02:20:54;;;;;;;;;28.60;27.60;;;;;15.98;42.08;98352.78;6264971;27;125977;-67
2021/05/01 02:23:57;;;;;;;;;33.00;28.40;;;;;15.94;42.04;98352.50;6262024;27;126282;-68
2021/05/01 02:26:59;;;;;;;;;32.00;28.40;;;;;15.92;42.34;98360.16;6261885;27;125208;-67
2021/05/01 02:30:04;;;;;;;;;27.50;27.00;;;;;16.01;42.15;98358.53;6260407;27;126367;-66
2021/05/01 02:33:06;;;;;;;;;28.20;25.40;;;;;16.03;41.81;98341.91;6286037;27;125888;-66
2021/05/01 02:36:09;;;;;;;;;28.60;27.00;;;;;15.93;42.18;98340.00;6285741;27;125293;-67
2021/05/01 02:39:12;;;;;;;;;26.50;26.00;;;;;15.74;42.05;98308.16;6287064;27;124162;-67
2021/05/01 02:42:14;;;;;;;;;25.40;24.00;;;;;15.90;41.83;98339.72;6286721;27;126933;-67
2021/05/01 02:45:18;;;;;;;;;28.00;27.00;;;;;15.82;42.26;98337.56;6287069;27;125049;-67
2021/05/01 02:48:21;;;;;;;;;28.60;26.60;;;;;15.73;42.22;98325.59;6286038;27;125005;-67
2021/05/01 02:51:23;;;;;;;;;27.00;24.75;;;;;15.78;42.36;98329.13;6286252;27;126407;-67
2021/05/01 02:54:26;;;;;;;;;28.40;26.00;;;;;15.86;42.10;98328.59;6286667;27;126414;-67
2021/05/01 02:57:28;;;;;;;;;31.00;28.00;;;;;15.92;41.83;98326.69;6276957;27;125163;-67
2021/05/01 03:00:31;;;;;;;;;30.00;29.00;;;;;15.83;42.10;98328.31;6280472;27;125197;-67
2021/05/01 03:03:33;;;;;;;;;28.40;27.00;;;;;15.78;42.34;98329.13;6285370;27;124381;-67
2021/05/01 03:06:35;;;;;;;;;29.00;27.00;;;;;15.78;42.63;98325.59;6286731;27;126482;-67
2021/05/01 03:09:38;;;;;;;;;28.50;24.00;;;;;15.74;43.18;98322.56;6284878;27;125265;-67
2021/05/01 03:12:41;;;;;;;;;26.60;25.00;;;;;15.72;43.01;98313.06;6286312;27;126116;-67
2021/05/01 03:15:43;;;;;;;;;26.00;24.40;;;;;15.72;43.24;98310.34;6285242;27;126380;-67
2021/05/01 03:18:45;;;;;;;;;27.00;26.00;;;;;15.82;43.37;98326.69;6284876;27;125919;-66
2021/05/01 03:21:48;;;;;;;;;26.60;25.00;;;;;15.85;43.39;98334.28;6285924;27;126420;-67
2021/05/01 03:24:52;;;;;;;;;26.00;25.50;;;;;15.91;43.67;98334.03;6284876;27;126138;-67
2021/05/01 03:27:54;;;;;;;;;34.00;29.00;;;;;15.90;44.19;98332.41;6282921;27;126341;-67
2021/05/01 03:30:56;;;;;;;;;28.60;27.40;;;;;15.96;44.63;98328.59;6262792;27;126123;-67
2021/05/01 03:33:58;;;;;;;;;26.40;26.00;;;;;15.99;44.36;98319.91;6260683;27;126251;-68
2021/05/01 03:37:01;;;;;;;;;25.00;24.60;;;;;16.03;44.70;98326.44;6260544;27;125138;-66
2021/05/01 03:40:07;;;;;;;;;29.00;25.00;;;;;16.01;44.60;98312.31;6260969;27;125549;-66
2021/05/01 03:43:10;;;;;;;;;33.00;29.40;;;;;16.09;44.74;98308.22;6276521;27;125874;-66
2021/05/01 03:46:12;;;;;;;;;34.00;31.00;;;;;16.07;45.22;98313.13;6260698;27;126424;-66
2021/05/01 03:49:14;;;;;;;;;33.50;30.00;;;;;16.07;45.10;98312.31;6284229;27;126463;-66
2021/05/01 03:52:17;;;;;;;;;28.20;26.00;;;;;16.13;44.67;98322.06;6283991;27;126527;-66
2021/05/01 03:55:20;;;;;;;;;29.00;24.40;;;;;15.98;44.66;98320.16;6286157;27;125139;-66
2021/05/01 03:58:25;;;;;;;;;26.80;25.80;;;;;15.99;44.84;98328.06;6266897;27;125976;-66
2021/05/01 04:01:27;;;;;;;;;29.25;27.00;;;;;15.95;45.00;98329.69;6261375;27;126266;-67
2021/05/01 04:04:30;;;;;;;;;26.60;24.60;;;;;15.96;45.44;98325.88;6260336;27;126263;-66
2021/05/01 04:07:32;;;;;;;;;30.80;27.80;;;;;15.97;44.89;98335.69;6260278;27;125342;-66
2021/05/01 04:10:36;;;;;;;;;30.40;29.40;;;;;15.94;45.40;98338.91;6275904;27;126350;-66
2021/05/01 04:13:43;;;;;;;;;31.00;29.00;;;;;15.93;45.69;98337.28;6258773;27;123296;-67
2021/05/01 04:16:45;;;;;;;;;32.00;30.00;;;;;15.98;45.85;98339.19;6260543;27;124759;-68
2021/05/01 04:19:49;;;;;;;;;31.60;30.00;;;;;15.94;46.08;98343.53;6259842;27;124226;-67
2021/05/01 04:22:51;;;;;;;;;31.60;29.60;;;;;15.91;46.25;98335.94;6259271;27;124819;-67
2021/05/01 04:25:55;;;;;;;;;33.00;28.00;;;;;15.90;46.26;98332.41;6260283;27;126916;-67
2021/05/01 04:28:57;;;;;;;;;30.60;29.00;;;;;15.79;46.29;98325.31;6276631;27;125847;-67
2021/05/01 04:31:59;;;;;;;;;32.20;30.00;;;;;15.81;46.51;98306.84;6259937;27;127414;-67
2021/05/01 04:35:01;;;;;;;;;34.60;30.00;;;;;15.76;46.83;98300.56;6260033;27;127244;-67
2021/05/01 04:38:03;;;;;;;;;33.40;30.00;;;;;15.71;47.01;98327.75;6259358;27;126701;-67
2021/05/01 04:41:07;;;;;;;;;30.20;29.20;;;;;15.66;46.66;98349.47;6260354;27;125314;-67
2021/05/01 04:44:09;;;;;;;;;32.75;30.25;;;;;15.64;47.15;98347.00;6285079;27;126425;-67
2021/05/01 04:47:11;;;;;;;;;32.00;30.00;;;;;15.64;47.17;98338.84;6285253;27;126262;-67
2021/05/01 04:50:15;;;;;;;;;36.00;30.00;;;;;15.67;47.34;98351.09;6284786;27;126192;-67
2021/05/01 04:53:18;;;;;;;;;36.00;31.00;;;;;15.58;46.60;98342.66;6286271;27;124986;-67
2021/05/01 04:56:21;;;;;;;;;34.25;31.00;;;;;15.61;47.00;98333.97;6288400;27;126420;-67
2021/05/01 04:59:23;;;;;;;;;35.00;31.50;;;;;15.60;47.15;98338.56;6288996;27;126846;-67
2021/05/01 05:02:25;;;;;;;;;37.80;32.80;;;;;15.61;47.57;98331.25;6275966;27;125106;-67
2021/05/01 05:05:28;;;;;;;;;37.00;32.00;;;;;15.68;47.67;98326.38;6263761;27;126699;-68
2021/05/01 05:08:31;;;;;;;;;34.40;31.40;;;;;15.71;47.61;98320.41;6263925;27;126576;-67
2021/05/01 05:11:34;;;;;;;;;35.00;30.00;;;;;15.71;47.06;98323.13;6263997;27;127731;-67
2021/05/01 05:14:36;;;;;;;;;37.50;32.00;;;;;15.74;47.20;98329.91;6262264;27;127064;-67
2021/05/01 05:17:38;;;;;;;;;36.60;32.00;;;;;15.75;47.22;98343.22;6262094;27;126073;-67
2021/05/01 05:20:41;;;;;;;;;34.00;31.00;;;;;15.63;46.55;98344.56;6263042;27;126446;-66
2021/05/01 05:23:43;;;;;;;;;36.00;32.60;;;;;15.57;46.50;98343.72;6262282;27;125373;-66
2021/05/01 05:26:46;;;;;;;;;38.00;32.80;;;;;15.42;47.06;98338.22;6269882;27;126168;-66
2021/05/01 05:29:51;;;;;;;;;37.00;32.75;;;;;15.34;47.67;98327.88;6280372;27;125252;-67
2021/05/01 05:32:54;;;;;;;;;32.67;30.00;;;;;15.38;47.20;98324.34;6263352;27;124148;-66
2021/05/01 05:35:57;;;;;;;;;30.00;28.60;;;;;15.36;47.44;98321.06;6263560;27;124718;-66
2021/05/01 05:38:59;;;;;;;;;31.00;28.40;;;;;15.30;47.62;98332.19;6262175;27;126379;-66
2021/05/01 05:42:02;;;;;;;;;31.00;29.40;;;;;15.29;48.07;98323.25;6287116;27;127228;-66
2021/05/01 05:45:06;;;;;;;;;33.25;30.25;;;;;15.32;47.93;98302.88;6286781;27;126097;-67
2021/05/01 05:48:08;;;;;;;;;34.00;30.50;;;;;15.30;48.19;98300.41;6287527;27;124748;-66
2021/05/01 05:51:11;;;;;;;;;36.50;31.00;;;;;15.32;48.27;98297.44;6269426;27;124014;-66
2021/05/01 05:54:13;;;;;;;;;33.00;28.40;;;;;15.33;49.14;98293.66;6270494;27;126240;-67
2021/05/01 05:57:16;;;;;;;;;34.25;30.00;;;;;15.27;48.27;98290.09;6276491;27;126997;-67
2021/05/01 06:00:20;;;;;;;;;35.50;30.00;;;;;15.25;48.44;98302.31;6304115;27;127548;-66
2021/05/01 06:03:24;;;;;;;;;30.50;27.50;;;;;15.28;48.29;98318.06;6286250;27;125223;-67
2021/05/01 06:06:30;;;;;;;;;33.00;30.00;;;;;15.31;48.57;98333.81;6269375;27;127388;-66
2021/05/01 06:09:33;;;;;;;;;35.00;30.00;;;;;15.31;48.66;98345.50;6279292;27;125770;-67
2021/05/01 06:12:37;;;;;;;;;29.00;26.00;;;;;15.22;47.94;98338.94;6288218;27;126580;-68
2021/05/01 06:15:40;;;;;;;;;31.40;29.40;;;;;15.18;48.12;98352.25;6283521;27;126723;-66
2021/05/01 06:18:45;;;;;;;;;29.20;28.20;;;;;15.31;48.65;98325.66;6270991;27;125239;-66
2021/05/01 06:21:47;;;;;;;;;30.00;28.60;;;;;15.37;49.05;98283.88;6283520;27;124927;-67
2021/05/01 06:24:50;;;;;;;;;30.60;28.60;;;;;15.38;48.94;98266.50;6274285;27;125375;-67
2021/05/01 06:27:53;;;;;;;;;30.40;29.00;;;;;15.48;49.07;98313.53;6273895;27;125207;-67
2021/05/01 06:31:00;;;;;;;;;34.20;30.00;;;;;15.37;48.83;98324.63;6285234;27;126480;-66
2021/05/01 06:34:03;;;;;;;;;33.20;30.00;;;;;15.40;48.43;98340.38;6281446;27;124829;-66
2021/05/01 06:37:07;;;;;;;;;31.50;27.75;;;;;15.21;48.77;98302.00;6286300;27;126164;-67
2021/05/01 06:40:14;;;;;;;;;31.25;27.75;;;;;15.28;48.92;98304.50;6263697;27;124636;-67
2021/05/01 06:43:27;;;;;;;;;33.00;29.00;;;;;15.16;49.32;98296.56;6282668;27;126652;-67
2021/05/01 06:46:31;;;;;;;;;29.80;28.80;;;;;15.22;49.23;98300.94;6302436;27;124787;-67
2021/05/01 06:49:44;;;;;;;;;33.00;28.60;;;;;14.76;49.21;98242.91;6270332;27;126088;-66
2021/05/01 06:52:47;;;;;;;;;29.00;27.00;;;;;15.01;49.64;98304.63;6264734;27;124718;-67
2021/05/01 06:55:52;;;;;;;;;30.40;29.40;;;;;15.02;49.52;98306.28;6262041;27;127178;-67
2021/05/01 06:59:02;;;;;;;;;37.00;30.60;;;;;15.06;49.95;98285.66;6263542;27;126013;-67
2021/05/01 07:02:04;;;;;;;;;31.80;29.40;;;;;15.17;49.76;98299.03;6259980;27;125064;-66
2021/05/01 07:05:21;;;;;;;;;33.00;30.00;;;;;15.28;49.47;98309.91;6276938;27;126060;-68
2021/05/01 07:08:30;;;;;;;;;31.00;29.33;;;;;15.34;49.42;98304.25;6261772;27;126201;-66
2021/05/01 07:11:41;;;;;;;;;32.00;29.40;;;;;15.34;49.31;98308.88;6285425;27;127409;-67
2021/05/01 07:14:53;;;;;;;;;32.00;27.60;;;;;15.31;49.94;98307.47;6286941;27;126158;-67
2021/05/01 07:17:55;;;;;;;;;30.50;27.25;;;;;15.38;50.05;98321.66;6283073;27;124947;-67
2021/05/01 07:20:58;;;;;;;;;32.40;30.00;;;;;15.25;49.45;98305.03;6275825;27;126021;-66
2021/05/01 07:24:00;;;;;;;;;32.00;30.00;;;;;15.15;49.86;98303.88;6277794;27;124935;-66
2021/05/01 07:27:04;;;;;;;;;28.80;27.40;;;;;15.14;50.41;98293.31;6271856;27;127088;-67
2021/05/01 07:30:21;;;;;;;;;30.20;27.20;;;;;15.23;50.21;98309.91;6271208;27;127060;-66
2021/05/01 07:33:45;;;;;;;;;32.00;28.00;;;;;15.30;49.69;98324.84;6275651;27;126043;-67
2021/05/01 07:36:51;;;;;;;;;29.60;27.60;;;;;15.36;49.73;98331.94;6279113;27;123896;-67
2021/05/01 07:39:54;;;;;;;;;28.40;27.40;;;;;15.49;49.47;98326.00;6247672;27;124026;-66
2021/05/01 07:42:59;;;;;;;;;34.00;30.00;;;;;15.66;49.17;98322.28;6273994;27;124038;-68
2021/05/01 07:46:06;;;;;;;;;32.50;29.50;;;;;15.42;48.93;98278.47;6283118;27;126066;-67
2021/05/01 07:49:10;;;;;;;;;31.20;28.00;;;;;15.85;48.98;98328.84;6283109;27;127421;-67
2021/05/01 07:52:12;;;;;;;;;30.60;28.60;;;;;15.96;48.92;98331.31;6273465;27;124974;-68
2021/05/01 07:55:15;;;;;;;;;33.00;28.60;;;;;16.01;48.13;98334.06;6272980;27;124126;-68
2021/05/01 07:58:21;;;;;;;;;34.25;29.25;;;;;16.09;49.00;98334.59;6283534;27;127156;-68
2021/05/01 08:01:26;;;;;;;;;28.60;27.00;;;;;16.19;48.74;98327.25;6282529;27;124973;-67
2021/05/01 08:04:29;;;;;;;;;31.00;30.00;;;;;16.29;48.75;98332.72;6273037;27;124176;-66
2021/05/01 08:07:31;;;;;;;;;31.00;30.00;;;;;16.42;48.14;98340.31;6260739;27;127507;-66
2021/05/01 08:10:33;;;;;;;;;34.00;31.00;;;;;16.49;48.24;98342.78;6291028;27;127474;-66
2021/05/01 08:13:36;;;;;;;;;37.25;32.00;;;;;16.61;48.14;98346.06;6280124;27;126218;-66
2021/05/01 08:16:40;;;;;;;;;32.00;30.00;;;;;16.67;47.89;98342.22;6271076;27;123931;-66
2021/05/01 08:19:43;;;;;;;;;36.80;31.00;;;;;16.78;47.52;98326.69;6268204;27;127216;-66
2021/05/01 08:22:45;;;;;;;;;28.20;26.40;;;;;16.88;47.61;98322.06;6269618;27;125593;-67
2021/05/01 08:25:47;;;;;;;;;33.00;30.00;;;;;16.97;47.02;98305.13;6278024;27;127581;-67
2021/05/01 08:28:49;;;;;;;;;32.50;30.00;;;;;17.05;47.04;98310.84;6274060;27;125231;-67
2021/05/01 08:31:52;;;;;;;;;33.00;30.00;;;;;16.87;46.76;98306.00;6269549;27;127492;-67
2021/05/01 08:34:55;;;;;;;;;35.00;31.60;;;;;17.13;46.70;98342.97;6262152;27;126622;-67
2021/05/01 08:37:58;;;;;;;;;36.00;32.00;;;;;17.14;46.09;98336.44;6261088;27;124096;-67
2021/05/01 08:41:07;;;;;;;;;41.20;33.00;;;;;17.08;46.47;98350.31;6261549;27;124926;-67
2021/05/01 08:44:12;;;;;;;;;36.00;33.00;;;;;17.10;46.67;98350.88;6286320;27;125074;-67
2021/05/01 08:47:17;;;;;;;;;37.60;33.00;;;;;17.08;46.74;98362.03;6276300;27;126055;-67
2021/05/01 08:50:36;;;;;;;;;40.20;33.80;;;;;17.02;46.86;98357.69;6278691;27;126288;-67
2021/05/01 08:53:39;;;;;;;;;39.40;33.00;;;;;16.83;46.77;98316.63;6273196;27;127247;-66
2021/05/01 08:56:41;;;;;;;;;41.80;34.40;;;;;17.02;46.85;98351.41;6289701;27;125110;-66
2021/05/01 08:59:43;;;;;;;;;41.50;33.00;;;;;17.06;46.91;98353.31;6286250;27;127351;-66
2021/05/01 09:02:48;;;;;;;;;42.60;35.00;;;;;17.07;46.90;98354.94;6288840;27;125198;-66
2021/05/01 09:05:52;;;;;;;;;46.25;37.00;;;;;17.09;47.25;98374.56;6288935;27;127783;-67
2021/05/01 09:08:56;;;;;;;;;42.00;34.80;;;;;17.20;46.92;98384.31;6288359;27;125990;-67
2021/05/01 09:11:58;;;;;;;;;39.00;35.00;;;;;17.27;46.40;98384.84;6304379;27;125138;-66
2021/05/01 09:15:01;;;;;;;;;45.00;35.40;;;;;17.35;46.65;98378.00;6278020;27;124969;-66
2021/05/01 09:18:09;;;;;;;;;44.00;35.00;;;;;17.39;46.66;98370.13;6276188;27;124813;-65
2021/05/01 09:21:16;;;;;;;;;42.60;33.60;;;;;17.39;46.45;98370.13;6284633;27;125982;-66
2021/05/01 09:24:22;;;;;;;;;40.00;33.80;;;;;17.45;46.47;98372.53;6284339;27;124964;-66
2021/05/01 09:27:25;;;;;;;;;36.50;31.50;;;;;17.46;46.67;98368.72;6271800;27;127146;-66
2021/05/01 09:30:30;;;;;;;;;38.20;34.20;;;;;17.56;47.21;98374.13;6275557;27;125132;-66
2021/05/01 09:33:35;;;;;;;;;41.00;34.00;;;;;17.60;46.24;98358.88;6275204;27;126488;-67
2021/05/01 09:36:38;;;;;;;;;39.00;33.00;;;;;17.65;45.97;98356.13;6275570;27;125511;-66
2021/05/01 09:39:48;;;;;;;;;42.00;34.50;;;;;17.73;45.95;98369.19;6267868;27;127497;-66
2021/05/01 09:42:50;;;;;;;;;41.50;35.00;;;;;17.70;45.37;98377.91;6267087;27;123872;-66
2021/05/01 09:45:53;;;;;;;;;38.80;33.40;;;;;17.76;46.10;98370.53;6264763;27;125966;-66
2021/05/01 09:49:04;;;;;;;;;39.60;33.40;;;;;17.90;45.65;98371.53;6277683;27;128042;-67
2021/05/01 09:52:09;;;;;;;;;39.20;34.80;;;;;17.99;45.65;98371.75;6266198;27;123531;-66
2021/05/01 09:55:12;;;;;;;;;37.80;32.80;;;;;18.16;45.13;98358.56;6253508;27;125508;-66
2021/05/01 09:58:16;;;;;;;;;40.00;32.00;;;;;18.59;45.15;98348.69;6275061;27;126093;-68
2021/05/01 10:01:19;;;;;;;;;34.20;31.20;;;;;18.97;45.13;98361.44;6279720;27;124517;-66
2021/05/01 10:04:22;;;;;;;;;38.75;33.00;;;;;19.32;45.00;98362.97;6273017;27;126844;-66
2021/05/01 10:07:37;;;;;;;;;35.00;31.25;;;;;19.55;43.54;98357.81;6271367;27;125965;-66
2021/05/01 10:10:40;;;;;;;;;40.00;33.00;;;;;19.72;43.05;98350.75;6281686;27;126943;-67
2021/05/01 10:13:51;;;;;;;;;36.60;32.60;;;;;19.94;42.21;98357.56;6273513;27;124244;-66
2021/05/01 10:16:54;;;;;;;;;35.00;31.00;;;;;20.05;42.68;98357.13;6286223;27;125798;-67
2021/05/01 10:20:00;;;;;;;;;40.00;33.00;;;;;20.07;42.70;98346.69;6274332;27;127317;-67
2021/05/01 10:23:02;;;;;;;;;39.60;32.60;;;;;20.18;42.57;98341.88;6271848;27;126604;-67
2021/05/01 10:26:13;;;;;;;;;40.00;34.00;;;;;20.22;42.21;98330.03;6273117;27;125683;-67
2021/05/01 10:29:27;;;;;;;;;41.50;34.50;;;;;20.30;41.33;98334.03;6270973;27;124421;-67
2021/05/01 10:32:32;;;;;;;;;38.25;32.75;;;;;20.21;41.39;98317.47;6270610;27;124687;-67
2021/05/01 10:35:36;;;;;;;;;40.60;34.00;;;;;20.39;41.41;98329.50;6260228;27;127233;-67
2021/05/01 10:38:39;;;;;;;;;41.00;35.00;;;;;20.48;41.31;98335.13;6259867;27;126225;-67
2021/05/01 10:41:55;;;;;;;;;39.00;35.00;;;;;20.60;41.15;98339.03;6278938;27;125949;-67
2021/05/01 10:45:12;;;;;;;;;44.40;36.00;;;;;20.86;41.20;98333.09;6273867;27;127053;-67
2021/05/01 10:48:14;;;;;;;;;40.00;33.00;;;;;20.74;40.35;98323.44;6261232;27;125948;-67
2021/05/01 10:51:20;;;;;;;;;39.33;33.00;;;;;20.85;40.36;98351.47;6268490;27;124928;-67
2021/05/01 10:54:25;;;;;;;;;41.60;35.00;;;;;20.86;39.45;98336.66;6265537;27;127329;-67
2021/05/01 10:57:28;;;;;;;;;39.00;33.25;;;;;20.87;41.00;98324.56;6258540;27;124866;-67
2021/05/01 11:00:41;;;;;;;;;38.60;32.20;;;;;20.75;40.05;98324.25;6275130;27;126131;-67
2021/05/01 11:03:47;;;;;;;;;43.20;35.00;;;;;20.77;41.63;98325.56;6260304;27;124688;-67
2021/05/01 11:06:52;;;;;;;;;40.60;33.40;;;;;20.95;40.80;98315.66;6267301;27;126456;-67
2021/05/01 11:10:03;;;;;;;;;41.60;33.40;;;;;21.00;39.89;98321.06;6270521;27;123768;-67
2021/05/01 11:13:06;;;;;;;;;43.00;36.00;;;;;21.04;40.92;98319.31;6259163;27;127202;-66
2021/05/01 11:16:10;;;;;;;;;43.50;35.50;;;;;21.14;39.73;98316.41;6260764;27;124792;-67
2021/05/01 11:19:13;;;;;;;;;40.60;35.00;;;;;21.13;40.86;98317.53;6257637;27;126410;-66
2021/05/01 11:22:21;;;;;;;;;39.60;34.60;;;;;21.18;39.47;98333.06;6276588;27;124964;-68
2021/05/01 11:25:24;;;;;;;;;46.00;35.00;;;;;20.97;40.25;98312.59;6284974;27;126095;-67
2021/05/01 11:28:27;;;;;;;;;44.00;35.00;;;;;21.11;40.58;98336.16;6261637;27;124181;-67
2021/05/01 11:31:29;;;;;;;;;41.00;35.00;;;;;21.09;40.38;98326.63;6241608;27;125067;-66
2021/05/01 11:34:33;;;;;;;;;44.75;35.75;;;;;21.07;41.52;98320.63;6258594;27;125921;-66
2021/05/01 11:37:40;;;;;;;;;41.20;35.00;;;;;21.11;40.30;98327.94;6260262;27;125356;-67
2021/05/01 11:40:46;;;;;;;;;41.75;35.00;;;;;21.16;41.08;98335.28;6278406;27;126005;-67
2021/05/01 11:43:51;;;;;;;;;41.00;34.25;;;;;21.17;40.69;98331.44;6281822;27;124543;-67
2021/05/01 11:46:57;;;;;;;;;40.40;33.00;;;;;21.20;40.21;98341.81;6276325;27;126662;-67
2021/05/01 11:50:00;;;;;;;;;41.00;35.50;;;;;21.18;41.23;98344.84;6275770;27;128331;-66
2021/05/01 11:53:37;;;;;;;;;45.40;36.60;;;;;21.13;40.22;98355.91;6272337;27;124913;-67
2021/05/01 11:56:54;;;;;;;;;45.00;36.75;;;;;21.00;40.52;98348.47;6268640;27;124328;-67
2021/05/01 11:59:59;;;;;;;;;43.00;36.00;;;;;20.95;41.43;98348.56;6279749;27;127929;-66
2021/05/01 12:03:04;;;;;;;;;42.25;36.00;;;;;20.94;41.27;98340.63;6271084;27;126018;-66
2021/05/01 12:06:13;;;;;;;;;45.00;37.00;;;;;20.95;41.36;98345.00;6272418;27;127207;-67
2021/05/01 12:09:20;;;;;;;;;43.80;36.00;;;;;20.95;41.22;98340.31;6278296;27;125954;-66
2021/05/01 12:12:25;;;;;;;;;46.20;38.00;;;;;20.96;41.72;98338.41;6262450;27;124632;-67
2021/05/01 12:15:32;;;;;;;;;47.40;38.00;;;;;20.98;40.69;98328.75;6263671;27;127435;-67
2021/05/01 12:18:42;;;;;;;;;40.75;33.75;;;;;21.08;40.50;98323.06;6276531;27;125871;-66
2021/05/01 12:21:44;;;;;;;;;43.00;36.00;;;;;21.22;41.20;98334.06;6287655;27;126341;-67
2021/05/01 12:24:47;;;;;;;;;42.00;36.00;;;;;21.08;40.60;98301.16;6287678;27;125144;-67
2021/05/01 12:27:51;;;;;;;;;47.00;37.00;;;;;21.49;39.95;98309.41;6287314;27;125143;-67
2021/05/01 12:30:53;;;;;;;;;43.00;36.00;;;;;21.71;39.87;98302.34;6289078;27;126052;-67
2021/05/01 12:33:56;;;;;;;;;44.40;35.60;;;;;21.92;40.45;98300.75;6286561;27;126015;-67
2021/05/01 12:37:01;;;;;;;;;47.00;38.00;;;;;22.04;39.25;98299.13;6263927;27;126906;-67
2021/05/01 12:40:08;;;;;;;;;45.40;36.00;;;;;22.14;39.27;98294.53;6289033;27;126035;-67
2021/05/01 12:43:39;;;;;;;;;46.00;37.40;;;;;22.20;39.67;98285.03;6279432;27;127892;-66
2021/05/01 12:46:45;;;;;;;;;45.00;35.00;;;;;22.15;39.02;98274.97;6264261;27;128053;-66
2021/05/01 12:49:48;;;;;;;;;43.20;36.00;;;;;22.40;38.85;98282.59;6264419;27;125218;-67
2021/05/01 12:52:50;;;;;;;;;45.00;38.00;;;;;22.37;39.09;98258.50;6278880;27;126585;-67
2021/05/01 12:56:17;;;;;;;;;42.40;35.40;;;;;22.52;38.30;98275.72;6265724;27;125476;-67
2021/05/01 12:59:28;;;;;;;;;44.40;37.00;;;;;22.53;39.34;98282.84;6268829;27;127256;-67
2021/05/01 13:02:31;;;;;;;;;42.25;35.00;;;;;22.47;38.44;98273.91;6262038;27;125915;-67
2021/05/01 13:05:34;;;;;;;;;42.00;34.80;;;;;22.41;38.86;98270.50;6263554;27;126572;-66
2021/05/01 13:08:37;;;;;;;;;45.25;36.75;;;;;22.41;39.08;98277.91;6275281;27;125030;-67
2021/05/01 13:11:40;;;;;;;;;46.60;37.00;;;;;22.39;39.09;98285.66;6288242;27;125872;-67
2021/05/01 13:15:00;;;;;;;;;43.00;36.75;;;;;22.48;39.69;98292.00;6287024;27;126714;-67
2021/05/01 13:18:09;;;;;;;;;43.67;36.00;;;;;22.48;39.33;98291.22;6288025;27;125890;-67
2021/05/01 13:21:11;;;;;;;;;45.00;36.00;;;;;22.39;38.78;98291.13;6288188;27;127076;-67
2021/05/01 13:24:16;;;;;;;;;50.20;41.80;;;;;22.45;39.72;98296.19;6286173;27;124107;-67
2021/05/01 13:27:19;;;;;;;;;53.40;42.40;;;;;22.49;39.61;98279.91;6286545;27;125899;-67
2021/05/01 13:30:23;;;;;;;;;42.60;36.00;;;;;22.60;39.41;98267.53;6285992;27;125767;-67
2021/05/01 13:33:25;;;;;;;;;47.80;38.40;;;;;22.58;38.89;98264.28;6287212;27;124799;-67
2021/05/01 13:36:28;;;;;;;;;45.60;38.00;;;;;22.60;39.01;98263.97;6287976;27;126223;-67
2021/05/01 13:39:34;;;;;;;;;47.00;38.75;;;;;22.51;38.72;98268.59;6286686;27;125290;-66
2021/05/01 13:42:41;;;;;;;;;47.00;39.00;;;;;22.47;39.37;98273.91;6286580;27;125780;-67
2021/05/01 13:45:50;;;;;;;;;48.20;38.20;;;;;22.46;39.67;98273.09;6286279;27;126046;-67
2021/05/01 13:48:53;;;;;;;;;44.50;36.50;;;;;22.48;39.74;98276.34;6288503;27;127900;-67
2021/05/01 13:51:56;;;;;;;;;46.75;37.75;;;;;22.46;39.11;98278.59;6272006;27;126077;-67
2021/05/01 13:55:18;;;;;;;;;42.60;35.00;;;;;22.44;38.90;98266.28;6262786;27;126484;-67
2021/05/01 13:58:21;;;;;;;;;39.80;33.00;;;;;22.44;39.25;98266.28;6262278;27;125821;-66
2021/05/01 14:01:23;;;;;;;;;59.25;47.00;;;;;22.46;39.55;98273.09;6261075;27;126325;-66